Tiempo atmosférico en la estación meteorológica de Irurtzun, Navarra (455 m.)



Fecha
DESCASC
Temp. máxima en grados centígrados (hora)
DESCASC
Temp. mínima en grados centígrados (hora)
DESCASC
Temp. media en grados centígrados
DESCASC
Racha de viento máxima en m/sg (hora)
DESCASC
Velocidad máxima media en intervalos de 10 minutos(hora)
DESCASC
Precipitaciones diarias en mm
DESCASC
Precipitaciones de 00:00 a 06:00 en mm
DESCASC
Precipitaciones de 06:00 a 12:00 en mm
DESCASC
Precipitaciones de 12:00 a 18:00 en mm
DESCASC
Precipitaciones de 18:00 a 24:00 en mm
DESCASC
18-08-2019 29.1 (12:30) 16.6 (23:59) 22.9 11.11 (18:10) 6.39 (18:10) 0 0 0 0 0
17-08-2019 33.9 (15:40) 11.8 (06:40) 22.9 7.78 (17:20) 3.89 (18:10) 0 0 0 0 0
16-08-2019 33 (17:00) 8.4 (08:10) 20.7 9.17 (20:20) 4.44 (20:20) 0 0 0 0 0
15-08-2019 23.1 (15:50) 14.7 (00:00) 18.9 8.06 (18:10) 4.17 (12:30) 0.4 0 0.4 0 0
14-08-2019 27.8 (17:10) 7.9 (00:00) 17.8 9.44 (19:00) 3.89 (15:50) 0 0 0 0 0
13-08-2019 21 (18:50) 12.8 (00:00) 16.9 12.78 (17:50) 3.61 (02:30) 0 0 0 0 0
12-08-2019 19.9 (14:40) 14 (00:00) 16.9 12.22 (15:30) 5.28 (15:30) 0 0 0 0 0
11-08-2019 22.6 (15:50) 15.9 (00:00) 19.3 10.83 (19:40) 5.28 (19:50) 4.2 1 3.2 0 0
10-08-2019 24.7 (14:10) 13.7 (00:00) 19.2 9.72 (16:50) 5.28 (16:50) 0.2 0 0.2 0 0
09-08-2019 33.6 (14:40) 17.3 (00:00) 25.4 11.94 (21:30) 6.11 (21:30) 1.6 0 0 0 1.6
08-08-2019 33.1 (16:00) 16.8 (00:00) 24.9 8.89 (14:00) 5 (14:00) 0 0 0 0 0
07-08-2019 29.1 (16:50) 17.2 (00:00) 23.2 7.22 (16:00) 3.33 (09:20) 0 0 0 0 0
06-08-2019 31.5 (16:20) 17.7 (00:00) 24.6 10.83 (21:50) 5.28 (21:30) 0 0 0 0 0
05-08-2019 28.4 (16:00) 18.3 (00:00) 23.3 7.22 (18:00) 3.61 (16:40) 0 0 0 0 0
04-08-2019 29 (15:50) 18.4 (00:00) 23.7 9.17 (17:50) 5 (17:50) 0 0 0 0 0
03-08-2019 32.8 (16:10) 13 (00:00) 22.9 9.44 (19:30) 5 (19:10) 0 0 0 0 0
02-08-2019 25.7 (18:00) 17.7 (00:00) 21.7 6.67 (11:40) 3.89 (17:30) 0 0 0 0 0
01-08-2019 28.1 (15:30) 14.2 (00:00) 21.2 10.83 (18:00) 6.11 (18:10) 24.8 0 24.8 0 0
31-07-2019 24.8 (16:00) 9.1 (00:00) 16.9 8.33 (20:10) 3.89 (20:20) 0 0 0 0 0
30-07-2019 20.9 (16:40) 14.3 (00:00) 17.6 12.22 (15:00) 5 (15:20) 0 0 0 0 0
29-07-2019 29.3 (14:30) 10.4 (00:00) 19.8 11.67 (17:00) 5.83 (20:30) 0 0 0 0 0
28-07-2019 22.9 (18:00) 13.7 (00:00) 18.3 6.67 (13:30) 2.5 (01:50) 0.8 0.2 0.4 0.2 0
27-07-2019 17.7 (18:20) 14.4 (00:00) 16.1 8.61 (17:20) 3.89 (20:30) 5.6 0 4 1.6 0
26-07-2019 22 (12:50) 17.2 (00:00) 19.6 11.39 (17:50) 5.56 (17:40) 1.6 0.8 0.8 0 0
25-07-2019 38.6 (18:30) 19.3 (00:00) 28.9 9.72 (20:30) 5.83 (14:00) 0 0 0 0 0
24-07-2019 38.6 (18:20) 17.3 (00:00) 27.9 9.17 (18:10) 5 (14:30) 0 0 0 0 0
23-07-2019 38.7 (17:30) 16.9 (00:00) 27.8 10.56 (15:10) 5.83 (13:10) 0 0 0 0 0
22-07-2019 37.8 (17:50) 18.5 (00:00) 28.1 7.5 (14:30) 3.33 (12:40) 2.4 1 1.4 0 0
21-07-2019 29.9 (14:10) 19.1 (00:00) 24.5 9.17 (19:40) 4.44 (21:40) 0 0 0 0 0

Gráficas

Temp. máximas Temp. mínimas Temp. medias Precipitaciones Rachas de viento máximas Velocidades máximas media en intervalos de 10 minutos

Datos horarios

Fecha y hora oficial Temperatura (ºC) Velocidad del viento (km/h) Dirección del viento Racha (km/h) Dirección de racha Precipitación (mm) Presión (hPa) Tendencia (hPa) Humedad (%)
2019-08-19 23:00:00 17 8 Norte 39 Nordeste 0 -- -- 74
2019-08-19 22:00:00 17 6 Noroeste 23 Noroeste 0 -- -- 75
2019-08-19 21:00:00 17.6 8 Noroeste 28 Noroeste 0 -- -- 71
2019-08-19 20:00:00 18.1 7 Norte 29 Norte 0 -- -- 67
2019-08-19 19:00:00 18.5 13 Norte 32 Noroeste 0 -- -- 65
2019-08-19 18:00:00 18.8 14 Noroeste 34 Noroeste 0 -- -- 63
2019-08-19 17:00:00 19.1 8 Noroeste 26 Noroeste 0 -- -- 62
2019-08-19 16:00:00 19 9 Noroeste 30 Oeste 0 -- -- 63
2019-08-19 15:00:00 19 8 Noroeste 33 Noroeste 0 -- -- 67
2019-08-19 14:00:00 19.9 9 Noroeste 25 Noroeste 0 -- -- 62
2019-08-19 13:00:00 20.3 6 Este 26 Nordeste 0 -- -- 58
2019-08-19 12:00:00 19 8 Oeste 41 Noroeste 0 -- -- 61
2019-08-19 11:00:00 17.9 12 Noroeste 35 Noroeste 0 -- -- 64
2019-08-19 10:00:00 17.1 13 Noroeste 31 Norte 0 -- -- 69
2019-08-19 09:00:00 16.6 6 Noroeste 19 Norte 0 -- -- 73
2019-08-19 08:00:00 15.6 5 Noroeste 19 Sudoeste 0 -- -- 80
2019-08-19 07:00:00 15.6 3 Noroeste 17 Norte 0 -- -- 81
2019-08-19 06:00:00 15.7 2 Noroeste 10 Noroeste 0 -- -- 81
2019-08-19 05:00:00 15.9 5 Norte 22 Norte 0 -- -- 81
2019-08-19 04:00:00 15.6 5 Noroeste 14 Oeste 0 -- -- 86
2019-08-19 03:00:00 15.8 4 Oeste 11 Oeste 0 -- -- 84
2019-08-19 02:00:00 16.1 6 Noroeste 28 Oeste 0 -- -- 81
2019-08-19 01:00:00 16.1 6 Este 37 Oeste 0 -- -- 79
2019-08-19 00:00:00 16.6 13 Oeste 36 Oeste 0 -- -- 83
2019-08-18 23:00:00 17.6 12 Noroeste 36 Norte 0 -- -- 80
2019-08-18 22:00:00 18.2 5 Noroeste 30 Noroeste 0 -- -- 82
2019-08-18 21:00:00 18.8 15 Noroeste 33 Norte 0 -- -- 81
2019-08-18 20:00:00 19.4 21 Noroeste 38 Noroeste 0 -- -- 81
2019-08-18 19:00:00 20.3 19 Noroeste 40 Norte 0 -- -- 78
2019-08-18 18:00:00 20.3 21 Norte 39 Norte 0 -- -- 79
2019-08-18 17:00:00 21.8 18 Norte 32 Norte 0 -- -- 76
2019-08-18 16:00:00 23.6 9 Norte 29 Norte 0 -- -- 68
2019-08-18 15:00:00 24.8 9 Norte 29 Norte 0 -- -- 68
2019-08-18 14:00:00 25.2 13 Noroeste 25 Noroeste 0 -- -- 66
2019-08-18 13:00:00 27.7 10 Norte 24 Norte 0 -- -- 59
2019-08-18 12:00:00 28.4 8 Sudeste 25 Sudeste 0 -- -- 56
2019-08-18 11:00:00 27.4 9 Sur 24 Sudeste 0 -- -- 59
2019-08-18 10:00:00 26.1 9 Sudeste 27 Sudeste 0 -- -- 60
2019-08-18 09:00:00 22.4 3 Norte 11 Este 0 -- -- 76
2019-08-18 08:00:00 20 4 Nordeste 10 Norte 0 -- -- 84
2019-08-18 07:00:00 18 4 Norte 11 Nordeste 0 -- -- 88
2019-08-18 06:00:00 17.8 3 Noroeste 9 Norte 0 -- -- 88
2019-08-18 05:00:00 17.7 5 Norte 12 Norte 0 -- -- 90
2019-08-18 04:00:00 18.1 6 Norte 14 Norte 0 -- -- 88
2019-08-18 03:00:00 19.3 5 Nordeste 13 Norte 0 -- -- 84
2019-08-18 02:00:00 18.3 2 Nordeste 5 Sudoeste 0 -- -- 88
2019-08-18 01:00:00 19.5 0 Calma 6 Nordeste 0 -- -- 84
2019-08-18 00:00:00 20.1 0 Calma 8 Norte 0 -- -- 81
2019-08-17 23:00:00 21.4 2 Oeste 7 Noroeste 0 -- -- 77
2019-08-17 22:00:00 23.3 0 Calma 17 Norte 0 -- -- 71
2019-08-17 21:00:00 25.5 9 Norte 26 Noroeste 0 -- -- 64
2019-08-17 20:00:00 27.8 11 Norte 28 Norte 0 -- -- 58
2019-08-17 19:00:00 29.4 12 Norte 28 Noroeste 0 -- -- 53
2019-08-17 18:00:00 30.2 13 Norte 28 Noroeste 0 -- -- 51
2019-08-17 17:00:00 31.7 9 Norte 21 Noroeste 0 -- -- 45
2019-08-17 16:00:00 33.6 8 Norte 21 Nordeste 0 -- -- 39
2019-08-17 15:00:00 33.7 8 Sudeste 21 Este 0 -- -- 37
2019-08-17 14:00:00 32.3 9 Sudeste 22 Sur 0 -- -- 42
2019-08-17 13:00:00 30.6 4 Sur 20 Sur 0 -- -- 47
2019-08-17 12:00:00 28.8 8 Sudeste 20 Este 0 -- -- 51
2019-08-17 11:00:00 25 5 Norte 11 Norte 0 -- -- 60
2019-08-17 10:00:00 18.4 4 Norte 11 Norte 0 -- -- 66
2019-08-17 09:00:00 13.8 2 Nordeste 6 Sudoeste 0 -- -- 79
2019-08-17 08:00:00 12.1 0 Calma 8 Norte 0 -- -- 90
2019-08-17 07:00:00 12.1 2 Nordeste 9 Norte 0 -- -- 87
2019-08-17 06:00:00 12.2 0 Calma 2 Sur 0 -- -- 88
2019-08-17 05:00:00 13.4 0 Calma 4 Norte 0 -- -- 84
2019-08-17 04:00:00 14.4 0 Calma 7 Nordeste 0 -- -- 84
2019-08-17 03:00:00 15.6 4 Noroeste 13 Noroeste 0 -- -- 78
2019-08-17 02:00:00 17.2 4 Noroeste 15 Oeste 0 -- -- 75
2019-08-17 01:00:00 17.5 3 Noroeste 15 Noroeste 0 -- -- 72
2019-08-17 00:00:00 19.8 3 Noroeste 14 Oeste 0 -- -- 63
2019-08-16 23:00:00 20.7 3 Noroeste 14 Norte 0 -- -- 68
2019-08-16 22:00:00 22.2 7 Noroeste 27 Noroeste 0 -- -- 67
2019-08-16 21:00:00 24.5 12 Noroeste 33 Noroeste 0 -- -- 66
2019-08-16 20:00:00 28 11 Norte 24 Noroeste 0 -- -- 52
2019-08-16 19:00:00 29.5 14 Norte 27 Noroeste 0 -- -- 48
2019-08-16 18:00:00 32.2 8 Nordeste 18 Nordeste 0 -- -- 34
2019-08-16 17:00:00 33 4 Oeste 10 Norte 0 -- -- 30
2019-08-16 16:00:00 31.3 8 Norte 13 Este 0 -- -- 30
2019-08-16 15:00:00 30.4 5 Nordeste 19 Este 0 -- -- 31
2019-08-16 14:00:00 28.1 9 Este 20 Este 0 -- -- 33
2019-08-16 13:00:00 25.6 10 Este 24 Nordeste 0 -- -- 40
2019-08-16 12:00:00 23 7 Este 16 Este 0 -- -- 48
2019-08-16 11:00:00 18.8 5 Este 17 Este 0 -- -- 66
2019-08-16 10:00:00 13.7 2 Este 5 Nordeste 0 -- -- 88
2019-08-16 09:00:00 9.9 2 Noroeste 4 Noroeste 0 -- -- 97
2019-08-16 08:00:00 8.5 2 Oeste 4 Sur 0 -- -- 96
2019-08-16 07:00:00 9.2 2 Sur 5 Nordeste 0 -- -- 95
2019-08-16 06:00:00 9.5 0 Calma 4 Sudeste 0 -- -- 94
2019-08-16 05:00:00 10.7 2 Norte 9 Noroeste 0 -- -- 93
2019-08-16 04:00:00 11.3 2 Noroeste 15 Oeste 0 -- -- 91
2019-08-16 03:00:00 12.2 3 Noroeste 15 Noroeste 0 -- -- 90
2019-08-16 02:00:00 13 3 Oeste 13 Oeste 0 -- -- 89
2019-08-16 01:00:00 14.3 4 Oeste 10 Noroeste 0 -- -- 85
2019-08-16 00:00:00 14.7 5 Norte 12 Norte 0 -- -- 83
2019-08-15 23:00:00 15.3 7 Noroeste 15 Noroeste 0 -- -- 82
2019-08-15 22:00:00 16 3 Norte 17 Norte 0 -- -- 78
2019-08-15 21:00:00 17.7 9 Noroeste 22 Norte 0 -- -- 70
2019-08-15 20:00:00 19.4 9 Norte 24 Norte 0 -- -- 63
2019-08-15 19:00:00 20.2 7 Norte 29 Norte 0 -- -- 61
2019-08-15 18:00:00 21.1 9 Norte 28 Norte 0 -- -- 59
2019-08-15 17:00:00 22.2 10 Norte 25 Noroeste 0 -- -- 57
2019-08-15 16:00:00 22.3 11 Noroeste 28 Nordeste 0 -- -- 58
2019-08-15 15:00:00 22.1 12 Noroeste 26 Noroeste 0 -- -- 61
2019-08-15 14:00:00 21.7 11 Noroeste 27 Noroeste 0 -- -- 61
2019-08-15 13:00:00 20.8 13 Norte 26 Noroeste 0 -- -- 67
2019-08-15 12:00:00 19.6 8 Norte 18 Nordeste 0 -- -- 72
2019-08-15 11:00:00 19.3 6 Norte 24 Norte 0.2 -- -- 75
2019-08-15 10:00:00 18.3 4 Nordeste 22 Noroeste 0 -- -- 83
2019-08-15 09:00:00 17.9 8 Norte 22 Noroeste 0 -- -- 84
2019-08-15 08:00:00 17.8 8 Oeste 19 Oeste 0 -- -- 90
2019-08-15 07:00:00 17.8 3 Noroeste 8 Norte 0.2 -- -- 93
2019-08-15 06:00:00 18.2 2 Noroeste 9 Oeste 0 -- -- 90
2019-08-15 05:00:00 18.1 4 Noroeste 8 Noroeste 0 -- -- 92
2019-08-15 04:00:00 18.5 0 Calma 13 Norte 0 -- -- 89
2019-08-15 03:00:00 18.9 4 Noroeste 15 Oeste 0 -- -- 85
2019-08-15 02:00:00 19.1 5 Norte 15 Norte 0 -- -- 83
2019-08-15 01:00:00 19 5 Noroeste 17 Oeste 0 -- -- 82
2019-08-15 00:00:00 18.8 6 Norte 23 Norte 0 -- -- 81
2019-08-14 23:00:00 19.1 8 Noroeste 15 Norte 0 -- -- 76
2019-08-14 22:00:00 20.3 5 Noroeste 15 Oeste 0 -- -- 66
2019-08-14 21:00:00 21.2 4 Noroeste 18 Norte 0 -- -- 61
2019-08-14 20:00:00 24 6 Norte 21 Norte 0 -- -- 49
2019-08-14 19:00:00 25.1 10 Noroeste 34 Oeste 0 -- -- 48
2019-08-14 18:00:00 26.3 9 Nordeste 24 Nordeste 0 -- -- 44
2019-08-14 17:00:00 27.6 8 Noroeste 30 Noroeste 0 -- -- 44
2019-08-14 16:00:00 26.9 12 Noroeste 31 Noroeste 0 -- -- 43
2019-08-14 15:00:00 27.4 10 Noroeste 25 Norte 0 -- -- 39
2019-08-14 14:00:00 26.8 10 Oeste 18 Oeste 0 -- -- 42
2019-08-14 13:00:00 25.1 5 Sur 12 Sur 0 -- -- 42
2019-08-14 12:00:00 21.5 4 Sudeste 10 Noroeste 0 -- -- 46
2019-08-14 11:00:00 17.9 3 Sudeste 6 Sudeste 0 -- -- 59
2019-08-14 10:00:00 13.4 0 Calma 5 Este 0 -- -- 80
2019-08-14 09:00:00 9.8 2 Norte 8 Sudeste 0 -- -- 97
2019-08-14 08:00:00 8 0 Calma 2 Sur 0 -- -- 96
2019-08-14 07:00:00 8.3 0 Calma 2 Noroeste 0 -- -- 96
2019-08-14 06:00:00 8.5 0 Calma 4 Norte 0 -- -- 95
2019-08-14 05:00:00 9.5 2 Sur 6 Nordeste 0 -- -- 95
2019-08-14 04:00:00 9.8 0 Calma 5 Norte 0 -- -- 94
2019-08-14 03:00:00 10.1 2 Norte 5 Norte 0 -- -- 94
2019-08-14 02:00:00 10.6 2 Noroeste 10 Oeste 0 -- -- 92
2019-08-14 01:00:00 11.9 4 Oeste 10 Oeste 0 -- -- 88
2019-08-14 00:00:00 12.8 0 Calma 5 Nordeste 0 -- -- 86
2019-08-13 23:00:00 14.5 3 Norte 14 Noroeste 0 -- -- 79
2019-08-13 22:00:00 15.3 7 Noroeste 16 Oeste 0 -- -- 77
2019-08-13 21:00:00 17 8 Noroeste 19 Noroeste 0 -- -- 69
2019-08-13 20:00:00 18.7 9 Noroeste 22 Oeste 0 -- -- 62
2019-08-13 19:00:00 20.5 9 Norte 22 Norte 0 -- -- 55
2019-08-13 18:00:00 20.4 9 Norte 46 Noroeste 0 -- -- 54
2019-08-13 17:00:00 20.1 9 Noroeste 22 Noroeste 0 -- -- 56
2019-08-13 16:00:00 20.2 10 Norte 25 Este 0 -- -- 53
2019-08-13 15:00:00 20.6 6 Nordeste 22 Nordeste 0 -- -- 51
2019-08-13 14:00:00 20.3 8 Norte 27 Nordeste 0 -- -- 51
2019-08-13 13:00:00 20.5 10 Nordeste 27 Nordeste 0 -- -- 52
2019-08-13 12:00:00 16.5 3 Nordeste 19 Noroeste 0 -- -- 72
2019-08-13 11:00:00 16.2 5 Norte 14 Oeste 0 -- -- 73
2019-08-13 10:00:00 15.6 5 Norte 18 Oeste 0 -- -- 77
2019-08-13 09:00:00 14.8 7 Oeste 17 Oeste 0 -- -- 80
2019-08-13 08:00:00 14 5 Noroeste 14 Norte 0 -- -- 83
2019-08-13 07:00:00 13.9 0 Calma 11 Oeste 0 -- -- 84
2019-08-13 06:00:00 14 5 Noroeste 18 Oeste 0 -- -- 85
2019-08-13 05:00:00 14.3 6 Noroeste 19 Oeste 0 -- -- 83
2019-08-13 04:00:00 14.3 9 Oeste 24 Oeste 0 -- -- 82
2019-08-13 03:00:00 14.6 11 Oeste 28 Oeste 0 -- -- 80
2019-08-13 02:00:00 14.5 10 Oeste 20 Oeste 0 -- -- 80
2019-08-13 01:00:00 14.6 8 Oeste 22 Oeste 0 -- -- 81
2019-08-13 00:00:00 14.8 3 Noroeste 11 Norte 0 -- -- 80
2019-08-12 23:00:00 15 6 Noroeste 18 Norte 0 -- -- 79
2019-08-12 22:00:00 15 7 Noroeste 16 Norte 0 -- -- 79
2019-08-12 21:00:00 15.3 6 Oeste 19 Sudoeste 0 -- -- 78
2019-08-12 20:00:00 16.2 10 Noroeste 30 Oeste 0 -- -- 70
2019-08-12 19:00:00 16.9 10 Oeste 23 Oeste 0 -- -- 68
2019-08-12 18:00:00 17.6 13 Oeste 26 Oeste 0 -- -- 69
2019-08-12 17:00:00 18.5 7 Oeste 29 Noroeste 0 -- -- 65
2019-08-12 16:00:00 18.4 15 Noroeste 44 Noroeste 0 -- -- 65
2019-08-12 15:00:00 18.3 19 Noroeste 37 Noroeste 0 -- -- 63
2019-08-12 14:00:00 18.9 13 Oeste 36 Oeste 0 -- -- 59
2019-08-12 13:00:00 18.8 14 Oeste 28 Noroeste 0 -- -- 64
2019-08-12 12:00:00 17.6 4 Norte 25 Noroeste 0 -- -- 67
2019-08-12 11:00:00 16 14 Noroeste 33 Norte 0 -- -- 72
2019-08-12 10:00:00 15.6 10 Noroeste 27 Noroeste 0 -- -- 74
2019-08-12 09:00:00 14.9 9 Noroeste 25 Noroeste 0 -- -- 77
2019-08-12 08:00:00 14.1 9 Noroeste 22 Noroeste 0 -- -- 80
2019-08-12 07:00:00 14.2 9 Noroeste 28 Oeste 0 -- -- 80
2019-08-12 06:00:00 14.6 11 Oeste 25 Oeste 0 -- -- 80
2019-08-12 05:00:00 15.1 7 Oeste 19 Oeste 0 -- -- 83
2019-08-12 04:00:00 15.3 8 Oeste 22 Oeste 0 -- -- 84
2019-08-12 03:00:00 15.4 5 Oeste 22 Oeste 0 -- -- 84
2019-08-12 02:00:00 15.2 5 Oeste 22 Oeste 0 -- -- 85
2019-08-12 01:00:00 15.6 8 Noroeste 21 Sudoeste 0 -- -- 82
2019-08-12 00:00:00 16 9 Noroeste 19 Oeste 0 -- -- 82
2019-08-11 23:00:00 15.9 6 Noroeste 19 Oeste 0 -- -- 83
2019-08-11 22:00:00 16.5 8 Oeste 26 Oeste 0 -- -- 81
2019-08-11 21:00:00 17.1 6 Oeste 29 Noroeste 0 -- -- 78
2019-08-11 20:00:00 17.9 18 Norte 39 Norte 0 -- -- 74
2019-08-11 19:00:00 19.2 19 Norte 33 Norte 0 -- -- 72
2019-08-11 18:00:00 19.5 16 Norte 32 Nordeste 0 -- -- 71
2019-08-11 17:00:00 21.1 11 Norte 29 Nordeste 0 -- -- 67
2019-08-11 16:00:00 21.9 9 Noroeste 22 Noroeste 0 -- -- 65
2019-08-11 15:00:00 21.7 12 Norte 24 Norte 0 -- -- 65
2019-08-11 14:00:00 20.7 8 Nordeste 19 Nordeste 0 -- -- 71
2019-08-11 13:00:00 19.9 6 Norte 16 Noroeste 0 -- -- 76
2019-08-11 12:00:00 18.5 5 Noroeste 12 Noroeste 0 -- -- 83
2019-08-11 11:00:00 17.8 4 Noroeste 12 Oeste 0 -- -- 86
2019-08-11 10:00:00 16.9 4 Oeste 18 Norte 0.2 -- -- 90
2019-08-11 09:00:00 16.1 3 Noroeste 16 Oeste 1.8 -- -- 95
2019-08-11 08:00:00 16.2 6 Oeste 22 Oeste 1.2 -- -- 94
2019-08-11 07:00:00 16.4 5 Oeste 14 Oeste 0 -- -- 94
2019-08-11 06:00:00 16.7 2 Noroeste 10 Noroeste 0.4 -- -- 92
2019-08-11 05:00:00 17.1 6 Noroeste 14 Oeste 0 -- -- 88
2019-08-11 04:00:00 16.9 5 Oeste 17 Oeste 0 -- -- 89
2019-08-11 03:00:00 17.3 5 Noroeste 23 Noroeste 0 -- -- 87
2019-08-11 02:00:00 16.9 6 Oeste 20 Oeste 0.2 -- -- 88
2019-08-11 01:00:00 17 8 Noroeste 19 Oeste 0.4 -- -- 87
2019-08-11 00:00:00 17.6 5 Oeste 21 Noroeste 0 -- -- 81
2019-08-10 23:00:00 18.1 5 Noroeste 27 Noroeste 0 -- -- 80
2019-08-10 22:00:00 18.1 14 Noroeste 30 Norte 0 -- -- 77
2019-08-10 21:00:00 18.9 11 Noroeste 24 Norte 0 -- -- 75
2019-08-10 20:00:00 20.4 13 Noroeste 28 Noroeste 0 -- -- 71
2019-08-10 19:00:00 21.6 13 Norte 28 Norte 0 -- -- 68
2019-08-10 18:00:00 22.5 12 Norte 26 Oeste 0 -- -- 65
2019-08-10 17:00:00 21.8 16 Noroeste 35 Noroeste 0 -- -- 68
2019-08-10 16:00:00 24 11 Norte 28 Oeste 0 -- -- 60
2019-08-10 15:00:00 24.3 10 Norte 23 Norte 0 -- -- 60
2019-08-10 14:00:00 23.9 11 Noroeste 23 Nordeste 0 -- -- 63
2019-08-10 13:00:00 23.2 8 Nordeste 19 Este 0 -- -- 64
2019-08-10 12:00:00 21.9 8 Nordeste 18 Nordeste 0.2 -- -- 69
2019-08-10 11:00:00 20.1 0 Calma 14 Noroeste 0 -- -- 80
2019-08-10 10:00:00 18.8 3 Noroeste 11 Noroeste 0 -- -- 88
2019-08-10 09:00:00 15.8 5 Noroeste 12 Oeste 0 -- -- 97
2019-08-10 08:00:00 14 0 Calma 3 Oeste 0 -- -- 97
2019-08-10 07:00:00 13.9 0 Calma 4 Oeste 0 -- -- 97
2019-08-10 06:00:00 14 0 Calma 6 Oeste 0 -- -- 97
2019-08-10 05:00:00 14.2 3 Oeste 8 Oeste 0 -- -- 96
2019-08-10 04:00:00 14.4 0 Calma 6 Oeste 0 -- -- 96
2019-08-10 03:00:00 14.7 0 Calma 5 Sudeste 0 -- -- 96
2019-08-10 02:00:00 15.1 0 Calma 3 Sur 0 -- -- 94
2019-08-10 01:00:00 15.6 0 Calma 3 Norte 0 -- -- 94
2019-08-10 00:00:00 17.3 3 Oeste 8 Nordeste 0 -- -- 92
2019-08-09 23:00:00 18.5 5 Sur 10 Sudeste 0.4 -- -- 89
2019-08-09 22:00:00 20.8 2 Sur 43 Norte 1.2 -- -- 77
2019-08-09 21:00:00 26.8 4 Norte 14 Noroeste 0 -- -- 48
2019-08-09 20:00:00 27.2 5 Oeste 16 Sudeste 0 -- -- 61
2019-08-09 19:00:00 28.1 2 Nordeste 15 Oeste 0 -- -- 57
2019-08-09 18:00:00 28 6 Oeste 26 Oeste 0 -- -- 56
2019-08-09 17:00:00 29.6 10 Oeste 21 Noroeste 0 -- -- 53
2019-08-09 16:00:00 30.6 8 Oeste 23 Sudoeste 0 -- -- 50
2019-08-09 15:00:00 32.7 13 Oeste 30 Oeste 0 -- -- 45
2019-08-09 14:00:00 31.5 10 Oeste 30 Noroeste 0 -- -- 45
2019-08-09 13:00:00 31.9 9 Oeste 26 Sudoeste 0 -- -- 40
2019-08-09 12:00:00 31.3 5 Sur -- -- -- -- -- 42
2019-08-09 11:00:00 28.7 14 Sur 32 Sur 0 -- -- 46
2019-08-09 10:00:00 28.6 15 Sudeste 34 Sudeste 0 -- -- 48
2019-08-09 09:00:00 26.3 14 Sudeste 27 Sudeste 0 -- -- 54
2019-08-09 08:00:00 19.9 3 Noroeste 7 Norte 0 -- -- 81
2019-08-09 07:00:00 20.1 2 Norte 7 Sudoeste 0 -- -- 79
2019-08-09 06:00:00 20.8 3 Noroeste 13 Norte 0 -- -- 77
2019-08-09 05:00:00 20.2 4 Noroeste 8 Noroeste 0 -- -- 81
2019-08-09 04:00:00 20.1 3 Nordeste 7 Este 0 -- -- 84
2019-08-09 03:00:00 20.6 0 Calma 9 Noroeste 0 -- -- 83
2019-08-09 02:00:00 21.2 3 Norte 8 Norte 0 -- -- 83
2019-08-09 01:00:00 22.3 5 Sur 12 Nordeste 0 -- -- 79
2019-08-09 00:00:00 22.7 4 Norte 11 Norte 0 -- -- 79
2019-08-08 23:00:00 23.4 2 Norte 8 Norte 0 -- -- 76
2019-08-08 22:00:00 24.9 3 Norte 9 Norte 0 -- -- 70
2019-08-08 21:00:00 27.1 5 Norte 9 Norte 0 -- -- 63
2019-08-08 20:00:00 32.6 3 Oeste 8 Norte 0 -- -- 47
2019-08-08 19:00:00 32.8 3 Nordeste 12 Sudoeste 0 -- -- 45
2019-08-08 18:00:00 32 8 Oeste 18 Noroeste 0 -- -- 45
2019-08-08 17:00:00 32.2 9 Noroeste 19 Noroeste 0 -- -- 45
2019-08-08 16:00:00 33.1 8 Sudoeste 20 Oeste 0 -- -- 42
2019-08-08 15:00:00 31.8 5 Sur 18 Sur 0 -- -- 44
2019-08-08 14:00:00 32 18 Sudeste 32 Sudeste 0 -- -- 41
2019-08-08 13:00:00 29.5 13 Sur 28 Sudeste 0 -- -- 47
2019-08-08 12:00:00 28.2 12 Sur 30 Sudeste 0 -- -- 49
2019-08-08 11:00:00 27.4 13 Sudeste 24 Sudeste 0 -- -- 49
2019-08-08 10:00:00 25.7 6 Sudeste 20 Este 0 -- -- 56
2019-08-08 09:00:00 20.6 3 Norte 8 Sur 0 -- -- 80
2019-08-08 08:00:00 17.5 2 Norte 4 Noroeste 0 -- -- 92
2019-08-08 07:00:00 16.8 2 Noroeste 6 Oeste 0 -- -- 91
2019-08-08 06:00:00 17.8 0 Calma 5 Sudoeste 0 -- -- 89
2019-08-08 05:00:00 19.1 0 Calma 5 Norte 0 -- -- 87
2019-08-08 04:00:00 19.9 2 Oeste 6 Noroeste 0 -- -- 86
2019-08-08 03:00:00 20.2 2 Norte 8 Este 0 -- -- 85
2019-08-08 02:00:00 21 2 Sudeste 6 Sur 0 -- -- 80
2019-08-08 01:00:00 21.7 3 Sudeste 12 Norte 0 -- -- 80
2019-08-08 00:00:00 22.6 2 Noroeste 10 Norte 0 -- -- 75
2019-08-07 23:00:00 22.8 0 Calma 9 Noroeste 0 -- -- 79
2019-08-07 22:00:00 23.3 3 Oeste 10 Norte 0 -- -- 78
2019-08-07 21:00:00 25.6 4 Norte 11 Norte 0 -- -- 66
2019-08-07 20:00:00 26 5 Norte 18 Norte 0 -- -- 66
2019-08-07 19:00:00 25.8 9 Norte 20 Norte 0 -- -- 65
2019-08-07 18:00:00 27.2 10 Norte 23 Nordeste 0 -- -- 60
2019-08-07 17:00:00 28.5 10 Norte 24 Norte 0 -- -- 56
2019-08-07 16:00:00 28.7 10 Nordeste 26 Nordeste 0 -- -- 52
2019-08-07 15:00:00 27.7 9 Nordeste 21 Nordeste 0 -- -- 55
2019-08-07 14:00:00 26.6 8 Norte 21 Nordeste 0 -- -- 56
2019-08-07 13:00:00 25.7 4 Oeste 17 Oeste 0 -- -- 61
2019-08-07 12:00:00 23 8 Sudoeste 19 Oeste 0 -- -- 70
2019-08-07 11:00:00 21.8 10 Oeste 21 Oeste 0 -- -- 74
2019-08-07 10:00:00 19.9 9 Oeste 23 Oeste 0 -- -- 81
2019-08-07 09:00:00 18.6 10 Oeste 25 Oeste 0 -- -- 85
2019-08-07 08:00:00 17.4 5 Noroeste 13 Noroeste 0 -- -- 90
2019-08-07 07:00:00 17.3 7 Noroeste 12 Noroeste 0 -- -- 89
2019-08-07 06:00:00 17.8 7 Oeste 14 Oeste 0 -- -- 88
2019-08-07 05:00:00 18 3 Oeste 6 Oeste 0 -- -- 87
2019-08-07 04:00:00 18.6 3 Sur 12 Noroeste 0 -- -- 83
2019-08-07 03:00:00 19 5 Oeste 22 Oeste 0 -- -- 81
2019-08-07 02:00:00 19.2 8 Noroeste 26 Sudoeste 0 -- -- 81
2019-08-07 01:00:00 19.1 9 Oeste 22 Oeste 0 -- -- 86
2019-08-07 00:00:00 19.6 8 Noroeste 34 Oeste 0 -- -- 84
2019-08-06 23:00:00 19.7 14 Noroeste 36 Noroeste 0 -- -- 85
2019-08-06 22:00:00 21 12 Noroeste 39 Noroeste 0 -- -- 82
2019-08-06 21:00:00 22.3 12 Noroeste 31 Noroeste 0 -- -- 78
2019-08-06 20:00:00 23.8 15 Norte 38 Norte 0 -- -- 76
2019-08-06 19:00:00 25.6 13 Norte 22 Noroeste 0 -- -- 72
2019-08-06 18:00:00 27.4 13 Noroeste 26 Noroeste 0 -- -- 66
2019-08-06 17:00:00 29 13 Noroeste 21 Noroeste 0 -- -- 63
2019-08-06 16:00:00 31.4 6 Sudoeste 12 Oeste 0 -- -- 51
2019-08-06 15:00:00 30.6 4 Oeste 11 Oeste 0 -- -- 52
2019-08-06 14:00:00 28.9 4 Sudoeste 11 Oeste 0 -- -- 56
2019-08-06 13:00:00 27.7 4 Noroeste 10 Oeste 0 -- -- 59
2019-08-06 12:00:00 25.4 6 Oeste 15 Este 0 -- -- 67
2019-08-06 11:00:00 24.7 7 Este 15 Sudeste 0 -- -- 65
2019-08-06 10:00:00 21.6 9 Este 15 Este 0 -- -- 77
2019-08-06 09:00:00 19.1 3 Oeste 9 Oeste 0 -- -- 88
2019-08-06 08:00:00 18.4 0 Calma 6 Noroeste 0 -- -- 90
2019-08-06 07:00:00 18 3 Oeste 9 Oeste 0 -- -- 90
2019-08-06 06:00:00 17.8 4 Oeste 12 Oeste 0 -- -- 90
2019-08-06 05:00:00 17.7 5 Noroeste 14 Oeste 0 -- -- 91
2019-08-06 04:00:00 17.8 6 Oeste 14 Oeste 0 -- -- 90
2019-08-06 03:00:00 18.4 6 Oeste 14 Sudoeste 0 -- -- 87
2019-08-06 02:00:00 18.6 6 Oeste 18 Oeste 0 -- -- 87
2019-08-06 01:00:00 19.2 8 Oeste 23 Oeste 0 -- -- 84
2019-08-06 00:00:00 19.6 9 Oeste 24 Oeste 0 -- -- 84
2019-08-05 23:00:00 19.8 9 Oeste 16 Oeste 0 -- -- 84
2019-08-05 22:00:00 20.3 6 Oeste 25 Oeste 0 -- -- 82
2019-08-05 21:00:00 20.6 8 Oeste 18 Oeste 0 -- -- 83
2019-08-05 20:00:00 20.9 8 Oeste 23 Noroeste 0 -- -- 82
2019-08-05 19:00:00 22 9 Norte 25 Norte 0 -- -- 79
2019-08-05 18:00:00 24 13 Norte 26 Noroeste 0 -- -- 74
2019-08-05 17:00:00 26 11 Noroeste 21 Norte 0 -- -- 68
2019-08-05 16:00:00 28.4 6 Norte 19 Oeste 0 -- -- 61
2019-08-05 15:00:00 27.6 7 Noroeste 23 Oeste 0 -- -- 62
2019-08-05 14:00:00 26.8 8 Sudoeste 14 Oeste 0 -- -- 64
2019-08-05 13:00:00 25.1 7 Oeste 15 Oeste 0 -- -- 67
2019-08-05 12:00:00 24 6 Oeste 16 Oeste 0 -- -- 72
2019-08-05 11:00:00 22.4 5 Oeste 14 Sudoeste 0 -- -- 74
2019-08-05 10:00:00 20.7 4 Oeste 11 Noroeste 0 -- -- 80
2019-08-05 09:00:00 19.1 5 Oeste 10 Oeste 0 -- -- 86
2019-08-05 08:00:00 18.5 3 Oeste 10 Oeste 0 -- -- 87
2019-08-05 07:00:00 18.3 5 Oeste 11 Oeste 0 -- -- 87
2019-08-05 06:00:00 18.8 5 Noroeste 17 Noroeste 0 -- -- 85
2019-08-05 05:00:00 18.6 5 Oeste 14 Oeste 0 -- -- 85
2019-08-05 04:00:00 18.8 8 Oeste 18 Noroeste 0 -- -- 83
2019-08-05 03:00:00 18.6 3 Noroeste 24 Oeste 0 -- -- 85
2019-08-05 02:00:00 19 10 Oeste 22 Oeste 0 -- -- 83
2019-08-05 01:00:00 19 7 Oeste 18 Noroeste 0 -- -- 84
2019-08-05 00:00:00 19.2 5 Noroeste 22 Sudoeste 0 -- -- 86
2019-08-04 23:00:00 19.6 6 Noroeste 16 Oeste 0 -- -- 85
2019-08-04 22:00:00 19.7 8 Noroeste 19 Norte 0 -- -- 84
2019-08-04 21:00:00 20.4 8 Norte 20 Noroeste 0 -- -- 82
2019-08-04 20:00:00 20.7 12 Norte 32 Norte 0 -- -- 81
2019-08-04 19:00:00 21.1 11 Norte 31 Norte 0 -- -- 81
2019-08-04 18:00:00 22.2 18 Norte 33 Norte 0 -- -- 79
2019-08-04 17:00:00 25.8 12 Norte 26 Norte 0 -- -- 69
2019-08-04 16:00:00 29 7 Nordeste 17 Nordeste 0 -- -- 58
2019-08-04 15:00:00 28.1 4 Norte 15 Noroeste 0 -- -- 63
2019-08-04 14:00:00 26.7 7 Oeste 18 Sudoeste 0 -- -- 66
2019-08-04 13:00:00 25.2 8 Oeste 16 Noroeste 0 -- -- 70
2019-08-04 12:00:00 24.1 4 Sur 12 Oeste 0 -- -- 69
2019-08-04 11:00:00 22.1 3 Nordeste 11 Norte 0 -- -- 75
2019-08-04 10:00:00 20.6 4 Norte 13 Nordeste 0 -- -- 81
2019-08-04 09:00:00 20 3 Norte 8 Sudoeste 0 -- -- 84
2019-08-04 08:00:00 19 3 Sudoeste 10 Oeste 0 -- -- 90
2019-08-04 07:00:00 18.6 3 Oeste 10 Oeste 0 -- -- 91
2019-08-04 06:00:00 18.7 4 Oeste 14 Noroeste 0 -- -- 91
2019-08-04 05:00:00 18.4 5 Oeste 17 Noroeste 0 -- -- 91
2019-08-04 04:00:00 18.7 4 Oeste 21 Oeste 0 -- -- 91
2019-08-04 03:00:00 18.9 8 Oeste 19 Oeste 0 -- -- 89
2019-08-04 02:00:00 19.4 6 Noroeste 17 Oeste 0 -- -- 89
2019-08-04 01:00:00 20.1 8 Oeste 20 Sudoeste 0 -- -- 88
2019-08-04 00:00:00 20.7 7 Oeste 24 Oeste 0 -- -- 87
2019-08-03 23:00:00 21.7 9 Noroeste 21 Oeste 0 -- -- 85
2019-08-03 22:00:00 23.2 7 Noroeste 21 Noroeste 0 -- -- 81
2019-08-03 21:00:00 25.3 12 Noroeste 31 Norte 0 -- -- 74
2019-08-03 20:00:00 27.2 15 Norte 34 Noroeste 0 -- -- 70
2019-08-03 19:00:00 29.3 10 Norte 27 Noroeste 0 -- -- 62
2019-08-03 18:00:00 31.2 10 Norte 23 Norte 0 -- -- 53
2019-08-03 17:00:00 32.1 9 Norte 15 Norte 0 -- -- 40
2019-08-03 16:00:00 32.6 5 Norte 15 Nordeste 0 -- -- 37
2019-08-03 15:00:00 31.8 5 Nordeste 15 Este 0 -- -- 38
2019-08-03 14:00:00 30.5 6 Este 15 Este 0 -- -- 37
2019-08-03 13:00:00 28.2 7 Este 19 Este 0 -- -- 48
2019-08-03 12:00:00 26.1 8 Este 15 Este 0 -- -- 56
2019-08-03 11:00:00 21.2 2 Sudoeste 6 Sur 0 -- -- 76
2019-08-03 10:00:00 16.9 0 Calma 6 Este 0 -- -- 96
2019-08-03 09:00:00 15.1 0 Calma 4 Noroeste 0 -- -- 97
2019-08-03 08:00:00 14 0 Calma 2 Sur 0 -- -- 97
2019-08-03 07:00:00 13 0 Calma 2 Sur 0 -- -- 96
2019-08-03 06:00:00 13.4 0 Calma 2 Sur 0 -- -- 95
2019-08-03 05:00:00 13.9 0 Calma 3 Norte 0 -- -- 95
2019-08-03 04:00:00 15.1 3 Noroeste 11 Noroeste 0 -- -- 93
2019-08-03 03:00:00 15.7 5 Oeste 16 Oeste 0 -- -- 93
2019-08-03 02:00:00 16.3 5 Noroeste 19 Oeste 0 -- -- 93
2019-08-03 01:00:00 17 6 Noroeste 14 Oeste 0 -- -- 91
2019-08-03 00:00:00 18.3 5 Noroeste 18 Oeste 0 -- -- 87
2019-08-02 23:00:00 19.5 5 Noroeste 20 Oeste 0 -- -- 82
2019-08-02 22:00:00 20 11 Noroeste 22 Oeste 0 -- -- 80
2019-08-02 21:00:00 21.4 7 Noroeste 18 Oeste 0 -- -- 76
2019-08-02 20:00:00 23.6 9 Noroeste 20 Oeste 0 -- -- 70
2019-08-02 19:00:00 25.5 7 Oeste 20 Noroeste 0 -- -- 64
2019-08-02 18:00:00 25.7 10 Norte 24 Norte 0 -- -- 62
2019-08-02 17:00:00 25.3 12 Norte 23 Norte 0 -- -- 61
2019-08-02 16:00:00 25.3 10 Noroeste 21 Norte 0 -- -- 62
2019-08-02 15:00:00 24.8 10 Norte 22 Noroeste 0 -- -- 63
2019-08-02 14:00:00 24 8 Norte 19 Noroeste 0 -- -- 63
2019-08-02 13:00:00 22.6 9 Noroeste 20 Noroeste 0 -- -- 69
2019-08-02 12:00:00 21.5 10 Noroeste 24 Noroeste 0 -- -- 71
2019-08-02 11:00:00 20.4 8 Noroeste 23 Oeste 0 -- -- 72
2019-08-02 10:00:00 19.9 5 Norte 13 Oeste 0 -- -- 76
2019-08-02 09:00:00 18.3 7 Oeste 19 Oeste 0 -- -- 83
2019-08-02 08:00:00 18 6 Oeste 16 Oeste 0 -- -- 85
2019-08-02 07:00:00 17.8 5 Noroeste 15 Oeste 0 -- -- 86
2019-08-02 06:00:00 17.8 6 Noroeste 17 Noroeste 0 -- -- 84
2019-08-02 05:00:00 17.9 9 Oeste 20 Oeste 0 -- -- 84
2019-08-02 04:00:00 17.8 6 Oeste 12 Sudoeste 0 -- -- 88
2019-08-02 03:00:00 18 6 Noroeste 20 Oeste 0 -- -- 86
2019-08-02 02:00:00 17.9 6 Noroeste 17 Oeste 0 -- -- 87
2019-08-02 01:00:00 17.8 7 Oeste 19 Sudoeste 0 -- -- 88
2019-08-02 00:00:00 17.9 9 Oeste 24 Oeste 0 -- -- 87
2019-08-01 23:00:00 18.1 10 Noroeste 26 Oeste 0 -- -- 84
2019-08-01 22:00:00 18 12 Noroeste 33 Noroeste 0 -- -- 86
2019-08-01 21:00:00 18.3 17 Noroeste 35 Noroeste 0 -- -- 85
2019-08-01 20:00:00 19.1 14 Norte 37 Noroeste 0 -- -- 82
2019-08-01 19:00:00 19.7 12 Norte 34 Noroeste 0 -- -- 83
2019-08-01 18:00:00 21.6 21 Noroeste 39 Noroeste 0 -- -- 79
2019-08-01 17:00:00 25.9 14 Noroeste 27 Noroeste 0 -- -- 65
2019-08-01 16:00:00 27.5 8 Norte 14 Noroeste 0 -- -- 59
2019-08-01 15:00:00 27.6 6 Este 14 Nordeste 0 -- -- 54
2019-08-01 14:00:00 25.6 4 Nordeste 11 Este 0 -- -- 60
2019-08-01 13:00:00 23.1 5 Sudeste 11 Nordeste 0 -- -- 67
2019-08-01 12:00:00 21.1 5 Este 12 Este 0 -- -- 76
2019-08-01 11:00:00 17.7 4 Este 26 Nordeste 1.6 -- -- 90
2019-08-01 10:00:00 16.1 15 Sudeste 36 Este 13.4 -- -- 93
2019-08-01 09:00:00 16.1 5 Nordeste 21 Norte 6 -- -- 92
2019-08-01 08:00:00 16.5 8 Norte 24 Oeste 3.2 -- -- 88
2019-08-01 07:00:00 16.3 9 Noroeste 20 Noroeste 0.6 -- -- 91
2019-08-01 06:00:00 15.5 4 Oeste 13 Sudoeste 0 -- -- 93
2019-08-01 05:00:00 14.6 2 Norte 5 Norte 0 -- -- 93
2019-08-01 04:00:00 14.6 3 Noroeste 9 Noroeste 0 -- -- 93
2019-08-01 03:00:00 14.9 5 Noroeste 10 Oeste 0 -- -- 92
2019-08-01 02:00:00 15.3 3 Oeste 8 Oeste 0 -- -- 90
2019-08-01 01:00:00 16 5 Oeste 12 Noroeste 0 -- -- 88
2019-08-01 00:00:00 16.7 4 Noroeste 13 Noroeste 0 -- -- 85
2019-07-31 23:00:00 17.5 6 Noroeste 17 Noroeste 0 -- -- 81
2019-07-31 22:00:00 18.1 10 Noroeste 24 Norte 0 -- -- 79
2019-07-31 21:00:00 19.5 12 Norte 30 Noroeste 0 -- -- 73
2019-07-31 20:00:00 20.5 12 Norte 29 Noroeste 0 -- -- 69
2019-07-31 19:00:00 22.3 10 Norte 28 Norte 0 -- -- 63
2019-07-31 18:00:00 22.8 10 Norte 26 Noroeste 0 -- -- 61
2019-07-31 17:00:00 24.1 6 Norte 19 Norte 0 -- -- 54
2019-07-31 16:00:00 24.8 8 Norte 19 Noroeste 0 -- -- 49
2019-07-31 15:00:00 24 8 Norte 21 Nordeste 0 -- -- 50
2019-07-31 14:00:00 22.6 9 Norte 22 Norte 0 -- -- 50
2019-07-31 13:00:00 21.6 8 Norte 21 Nordeste 0 -- -- 51
2019-07-31 12:00:00 20.9 8 Nordeste 23 Nordeste 0 -- -- 52
2019-07-31 11:00:00 18.7 7 Norte 25 Noroeste 0 -- -- 60
2019-07-31 10:00:00 15.9 5 Oeste 13 Sudoeste 0 -- -- 74
2019-07-31 09:00:00 11.9 3 Noroeste 8 Oeste 0 -- -- 93
2019-07-31 08:00:00 9.9 2 Noroeste 14 Oeste 0 -- -- 95
2019-07-31 07:00:00 9.3 0 Calma 0 Calma 0 -- -- 95
2019-07-31 06:00:00 9.5 0 Calma 3 Sudoeste 0 -- -- 94
2019-07-31 05:00:00 10.1 2 Noroeste 5 Sudoeste 0 -- -- 93
2019-07-31 04:00:00 11.1 2 Norte 6 Norte 0 -- -- 93
2019-07-31 03:00:00 12 2 Noroeste 6 Norte 0 -- -- 89
2019-07-31 02:00:00 13.3 4 Norte 13 Oeste 0 -- -- 85
2019-07-31 01:00:00 13.9 5 Noroeste 13 Norte 0 -- -- 84
2019-07-31 00:00:00 14.3 5 Noroeste 15 Oeste 0 -- -- 82
2019-07-30 23:00:00 15 6 Noroeste 20 Oeste 0 -- -- 79
2019-07-30 22:00:00 15.6 9 Noroeste 18 Noroeste 0 -- -- 76
2019-07-30 21:00:00 16.6 8 Noroeste 26 Oeste 0 -- -- 68
2019-07-30 20:00:00 17.6 15 Noroeste 26 Noroeste 0 -- -- 62
2019-07-30 19:00:00 18.9 11 Norte 35 Noroeste 0 -- -- 61
2019-07-30 18:00:00 19.5 15 Norte 35 Norte 0 -- -- 60
2019-07-30 17:00:00 20.6 12 Norte 31 Noroeste 0 -- -- 55
2019-07-30 16:00:00 20.8 13 Noroeste 33 Noroeste 0 -- -- 57
2019-07-30 15:00:00 20 13 Norte 44 Oeste 0 -- -- 59
2019-07-30 14:00:00 19.2 14 Noroeste 29 Oeste 0 -- -- 61
2019-07-30 13:00:00 19.1 9 Noroeste 35 Oeste 0 -- -- 62
2019-07-30 12:00:00 19.1 11 Noroeste 30 Noroeste 0 -- -- 59
2019-07-30 11:00:00 17.8 14 Noroeste 25 Oeste 0 -- -- 66
2019-07-30 10:00:00 17.1 12 Oeste 27 Noroeste 0 -- -- 70
2019-07-30 09:00:00 16.1 9 Oeste 24 Oeste 0 -- -- 75
2019-07-30 08:00:00 15.5 3 Sudoeste 12 Oeste 0 -- -- 77
2019-07-30 07:00:00 15.3 4 Noroeste 19 Oeste 0 -- -- 78
2019-07-30 06:00:00 15.6 2 Nordeste 18 Norte 0 -- -- 76
2019-07-30 05:00:00 15.6 4 Noroeste 37 Noroeste 0 -- -- 78
2019-07-30 04:00:00 15.7 8 Oeste 24 Noroeste 0 -- -- 78
2019-07-30 03:00:00 15.9 3 Oeste 17 Oeste 0 -- -- 81
2019-07-30 02:00:00 16 8 Oeste 28 Noroeste 0 -- -- 78
2019-07-30 01:00:00 16.2 12 Noroeste 35 Oeste 0 -- -- 78
2019-07-30 00:00:00 17.1 11 Norte 32 Nordeste 0 -- -- 78
2019-07-29 23:00:00 17.7 11 Norte 28 Norte 0 -- -- 73
2019-07-29 22:00:00 17.7 8 Norte 32 Noroeste 0 -- -- 73
2019-07-29 21:00:00 17.5 19 Norte 40 Noroeste 0 -- -- 74
2019-07-29 20:00:00 18.3 18 Noroeste 32 Noroeste 0 -- -- 79
2019-07-29 19:00:00 19.5 14 Norte 36 Nordeste 0 -- -- 76
2019-07-29 18:00:00 20.2 16 Noroeste 33 Norte 0 -- -- 73
2019-07-29 17:00:00 23 18 Norte 42 Norte 0 -- -- 65
2019-07-29 16:00:00 25.1 17 Noroeste 39 Noroeste 0 -- -- 61
2019-07-29 15:00:00 28.1 15 Noroeste 30 Norte 0 -- -- 52
2019-07-29 14:00:00 28.9 5 Norte 16 Este 0 -- -- 36
2019-07-29 13:00:00 27.6 6 Este 17 Sudeste 0 -- -- 38
2019-07-29 12:00:00 25.3 10 Este 19 Sudeste 0 -- -- 42
2019-07-29 11:00:00 22.7 8 Este 19 Nordeste 0 -- -- 48
2019-07-29 10:00:00 18.9 9 Sudeste 18 Este 0 -- -- 56
2019-07-29 09:00:00 13.2 4 Norte 13 Norte 0 -- -- 84
2019-07-29 08:00:00 11.1 6 Nordeste 15 Norte 0 -- -- 90
2019-07-29 07:00:00 11 6 Norte 14 Norte 0 -- -- 91
2019-07-29 06:00:00 11.5 4 Norte 13 Norte 0 -- -- 93
2019-07-29 05:00:00 10.7 0 Calma 9 Nordeste 0 -- -- 95
2019-07-29 04:00:00 10.8 3 Noroeste 8 Nordeste 0 -- -- 96
2019-07-29 03:00:00 11.2 0 Calma 3 Sur 0 -- -- 94
2019-07-29 02:00:00 12.1 2 Sur 6 Norte 0 -- -- 93
2019-07-29 01:00:00 12.9 0 Calma 4 Nordeste 0 -- -- 91
2019-07-29 00:00:00 14 0 Calma 4 Nordeste 0 -- -- 90
2019-07-28 23:00:00 15.5 0 Calma 9 Norte 0 -- -- 84
2019-07-28 22:00:00 18.1 5 Norte 18 Oeste 0 -- -- 74
2019-07-28 21:00:00 20 7 Norte 19 Norte 0 -- -- 65
2019-07-28 20:00:00 21.7 8 Norte 20 Nordeste 0 -- -- 56
2019-07-28 19:00:00 22.7 6 Nordeste 17 Nordeste 0 -- -- 53
2019-07-28 18:00:00 22.9 7 Nordeste 21 Norte 0 -- -- 55
2019-07-28 17:00:00 21.9 6 Noroeste 16 Norte 0 -- -- 60
2019-07-28 16:00:00 21.7 6 Oeste 14 Noroeste 0 -- -- 62
2019-07-28 15:00:00 20.3 5 Noroeste 15 Norte 0.2 -- -- 61
2019-07-28 14:00:00 19.5 5 Nordeste 24 Oeste 0 -- -- 68
2019-07-28 13:00:00 18.5 5 Nordeste 13 Norte 0 -- -- 74
2019-07-28 12:00:00 16.2 5 Oeste 12 Oeste 0 -- -- 89
2019-07-28 11:00:00 15.9 5 Oeste 14 Sudoeste 0 -- -- 91
2019-07-28 10:00:00 15.7 8 Oeste 17 Oeste 0 -- -- 89
2019-07-28 09:00:00 14.8 9 Oeste 17 Oeste 0 -- -- 92
2019-07-28 08:00:00 13.9 4 Oeste 15 Oeste 0.2 -- -- 95
2019-07-28 07:00:00 13.8 3 Oeste 10 Oeste 0.2 -- -- 94
2019-07-28 06:00:00 13.8 3 Oeste 17 Oeste 0.2 -- -- 93
2019-07-28 05:00:00 14.5 8 Noroeste 17 Sudoeste 0 -- -- 87
2019-07-28 04:00:00 14.1 7 Noroeste 15 Oeste 0 -- -- 91
2019-07-28 03:00:00 14.4 5 Noroeste 15 Noroeste 0 -- -- 89
2019-07-28 02:00:00 14.3 6 Oeste 17 Noroeste 0 -- -- 90
2019-07-28 01:00:00 14.6 5 Oeste 15 Oeste 0 -- -- 85
2019-07-28 00:00:00 14.6 8 Noroeste 21 Oeste 0 -- -- 85
2019-07-27 23:00:00 14.6 9 Oeste 22 Noroeste 0 -- -- 85
2019-07-26 12:00:00 -- -- -- -- -- -- -- -- --
2019-07-26 11:00:00 20.6 4 Noroeste 12 Oeste 0 -- -- 88
2019-07-26 10:00:00 19.7 4 Noroeste 10 Sur 0 -- -- 92
2019-07-26 09:00:00 18.8 3 Noroeste 15 Oeste 0.6 -- -- 93
2019-07-26 08:00:00 19.2 5 Oeste 14 Oeste 0 -- -- 90
2019-07-26 07:00:00 19 3 Nordeste 21 Norte 0.2 -- -- 91
2019-07-26 06:00:00 19.3 5 Norte 21 Oeste 0.8 -- -- 88
2019-07-26 05:00:00 19.9 7 Sudoeste 22 Sudoeste 0 -- -- 82
2019-07-26 04:00:00 19.7 10 Noroeste 26 Oeste 0 -- -- 84
2019-07-26 03:00:00 20.1 13 Noroeste 30 Noroeste 0 -- -- 84
2019-07-26 02:00:00 20.6 12 Noroeste 28 Norte 0 -- -- 83
2019-07-26 01:00:00 21.3 4 Noroeste 21 Norte 0 -- -- 83
2019-07-26 00:00:00 21.5 11 Noroeste 32 Oeste 0 -- -- 82
2019-07-25 23:00:00 21.6 8 Noroeste 23 Oeste 0 -- -- 81
2019-07-25 22:00:00 21.9 12 Oeste 24 Oeste 0 -- -- 80
2019-07-25 21:00:00 23.8 6 Norte 35 Noroeste 0 -- -- 74
2019-07-25 20:00:00 24.1 9 Noroeste 32 Noroeste 0 -- -- 77
2019-07-25 19:00:00 30.5 17 Norte 32 Norte 0 -- -- 53
2019-07-25 18:00:00 38.3 6 Sur 28 Este 0 -- -- 27
2019-07-25 17:00:00 38.2 9 Sur 24 Sur 0 -- -- 26
2019-07-25 16:00:00 37.6 12 Sudeste 31 Sudeste 0 -- -- 24
2019-07-25 15:00:00 36.7 15 Sudeste 31 Sudeste 0 -- -- 24
2019-07-25 14:00:00 35.7 21 Sudeste 35 Sudeste 0 -- -- 26
2019-07-25 13:00:00 34.4 18 Sudeste 31 Sudeste 0 -- -- 31
2019-07-25 12:00:00 32.9 15 Sur 28 Sur 0 -- -- 34
2019-07-25 11:00:00 32 8 Sudeste 26 Sudeste 0 -- -- 34
2019-07-25 10:00:00 29.8 11 Sudeste 26 Sudeste 0 -- -- 37
2019-07-25 09:00:00 23.1 4 Norte 6 Norte 0 -- -- 65
2019-07-25 08:00:00 20.3 0 Calma 6 Nordeste 0 -- -- 74
2019-07-25 07:00:00 20 3 Norte 8 Norte 0 -- -- 71
2019-07-25 06:00:00 20.1 0 Calma 8 Norte 0 -- -- 69
2019-07-25 05:00:00 21.5 5 Norte 11 Nordeste 0 -- -- 62
2019-07-25 04:00:00 19.6 2 Noroeste 8 Oeste 0 -- -- 73
2019-07-25 03:00:00 20.1 2 Norte 6 Norte 0 -- -- 74
2019-07-25 02:00:00 21.4 0 Calma 8 Norte 0 -- -- 70
2019-07-25 01:00:00 23.4 5 Norte 12 Norte 0 -- -- 62
2019-07-25 00:00:00 24.8 5 Nordeste 12 Noroeste 0 -- -- 58
2019-07-24 23:00:00 27.2 4 Norte 15 Norte 0 -- -- 51
2019-07-24 22:00:00 29.2 5 Norte 19 Nordeste 0 -- -- 46
2019-07-24 21:00:00 30.2 3 Noroeste 18 Este 0 -- -- 44
2019-07-24 20:00:00 37.3 10 Sudeste 27 Este 0 -- -- 23
2019-07-24 19:00:00 38.4 10 Sudeste 33 Este 0 -- -- 22
2019-07-24 18:00:00 38.5 10 Sudeste 28 Sudeste 0 -- -- 23
2019-07-24 17:00:00 38.1 7 Sudeste 27 Sudeste 0 -- -- 22
2019-07-24 16:00:00 37.5 12 Sudeste 32 Sudeste 0 -- -- 25
2019-07-24 15:00:00 36.6 15 Sudeste 33 Sudeste 0 -- -- 26
2019-07-24 14:00:00 35.7 12 Sudeste 26 Este 0 -- -- 29
2019-07-24 13:00:00 34.1 10 Sudeste 24 Sudeste 0 -- -- 32
2019-07-24 12:00:00 32.3 6 Sudeste 19 Nordeste 0 -- -- 37
2019-07-24 11:00:00 29.5 9 Este 15 Nordeste 0 -- -- 42
2019-07-24 10:00:00 23.5 5 Norte 9 Norte 0 -- -- 65
2019-07-24 09:00:00 20.3 4 Oeste 12 Norte 0 -- -- 75
2019-07-24 08:00:00 18.6 0 Calma 9 Nordeste 0 -- -- 81
2019-07-24 07:00:00 17.3 0 Calma 8 Nordeste 0 -- -- 85
2019-07-24 06:00:00 18.4 0 Calma 8 Norte 0 -- -- 81
2019-07-24 05:00:00 19.2 3 Norte 11 Nordeste 0 -- -- 78
2019-07-24 04:00:00 21.3 4 Este 12 Este 0 -- -- 69
2019-07-24 03:00:00 20.4 3 Norte 8 Norte 0 -- -- 74
2019-07-24 02:00:00 22 5 Norte 8 Norte 0 -- -- 69
2019-07-24 01:00:00 23.4 4 Norte 12 Norte 0 -- -- 63
2019-07-24 00:00:00 23.7 4 Nordeste 15 Noroeste 0 -- -- 61
2019-07-23 23:00:00 26.4 13 Noroeste 33 Norte 0 -- -- 50
2019-07-23 22:00:00 26.6 4 Nordeste 13 Sudoeste 0 -- -- 52
2019-07-23 21:00:00 28.5 6 Oeste 35 Oeste 0 -- -- 39
2019-07-23 20:00:00 31.2 15 Oeste 35 Oeste 0 -- -- 31
2019-07-23 19:00:00 38.4 8 Este 20 Este 0 -- -- 22
2019-07-23 18:00:00 38.3 8 Sur 21 Sur 0 -- -- 24
2019-07-23 17:00:00 37.9 8 Sur 26 Sudeste 0 -- -- 25
2019-07-23 16:00:00 38.1 11 Sudeste 38 Sudeste 0 -- -- 24
2019-07-23 15:00:00 36.8 16 Sudeste 32 Sudeste 0 -- -- 24
2019-07-23 14:00:00 34.9 15 Sur 35 Sudeste 0 -- -- 27
2019-07-23 13:00:00 35 17 Sudeste 37 Sudeste 0 -- -- 26
2019-07-23 12:00:00 33.6 12 Sudeste 28 Este 0 -- -- 28
2019-07-23 11:00:00 31.7 13 Sudeste 35 Este 0 -- -- 29
2019-07-23 10:00:00 29.3 9 Sudeste 21 Sudeste 0 -- -- 33
2019-07-23 09:00:00 24.5 7 Sudeste 15 Sudeste 0 -- -- 46
2019-07-23 08:00:00 18.5 2 Noroeste 9 Nordeste 0 -- -- 77
2019-07-23 07:00:00 17.8 4 Norte 8 Norte 0 -- -- 79
2019-07-23 06:00:00 17.6 0 Calma 6 Nordeste 0 -- -- 83
2019-07-23 05:00:00 18.6 3 Noroeste 8 Norte 0 -- -- 77
2019-07-23 04:00:00 20.1 3 Norte 11 Norte 0 -- -- 71
2019-07-23 03:00:00 21.1 7 Norte 13 Norte 0 -- -- 68
2019-07-23 02:00:00 21.3 6 Norte 13 Norte 0 -- -- 69
2019-07-23 01:00:00 21.6 6 Norte 14 Norte 0 -- -- 67
2019-07-23 00:00:00 23.8 4 Norte 13 Nordeste 0 -- -- 63
2019-07-22 23:00:00 25.7 5 Nordeste 12 Este 0 -- -- 58
2019-07-22 22:00:00 26.7 6 Norte 13 Norte 0 -- -- 53
2019-07-22 21:00:00 29 6 Norte 13 Sudeste 0 -- -- 48
2019-07-22 20:00:00 36.4 7 Sudeste 23 Sudeste 0 -- -- 24
2019-07-22 19:00:00 37.3 9 Sur 21 Sudoeste 0 -- -- 25
2019-07-22 18:00:00 37.7 10 Sur 21 Sur 0 -- -- 25
2019-07-22 17:00:00 37.2 10 Sur 24 Sur 0 -- -- 26
2019-07-22 16:00:00 36.7 10 Sur 26 Sudeste 0 -- -- 27
2019-07-22 15:00:00 35.6 9 Sur 27 Sur 0 -- -- 29
2019-07-22 14:00:00 33.7 10 Este 23 Sudeste 0 -- -- 37
2019-07-22 13:00:00 31.5 9 Este 21 Este 0 -- -- 44
2019-07-22 12:00:00 28.9 10 Este 21 Este 0.2 -- -- 49
2019-07-22 11:00:00 25.9 9 Este 21 Este 0 -- -- 65
2019-07-22 10:00:00 22.3 6 Nordeste 22 Nordeste 0 -- -- 84
2019-07-22 09:00:00 19.9 4 Nordeste 13 Nordeste 1.2 -- -- 92
2019-07-22 08:00:00 18.8 3 Nordeste 11 Norte 0 -- -- 95
2019-07-22 07:00:00 18.7 0 Calma 3 Noroeste 0 -- -- 95
2019-07-22 06:00:00 19 0 Calma 6 Oeste 1 -- -- 92
2019-07-22 05:00:00 19.1 3 Noroeste 11 Oeste 0 -- -- 90
2019-07-22 04:00:00 19.3 3 Noroeste 13 Oeste 0 -- -- 89
2019-07-22 03:00:00 19.3 5 Oeste 12 Oeste 0 -- -- 89
2019-07-22 02:00:00 20 3 Oeste 11 Oeste 0 -- -- 87
2019-07-22 01:00:00 20.5 3 Noroeste 21 Oeste 0 -- -- 86
2019-07-22 00:00:00 21.3 9 Noroeste 25 Nordeste 0 -- -- 83
2019-07-21 23:00:00 20.9 5 Oeste 30 Noroeste 0 -- -- 85
2019-07-21 22:00:00 21.2 14 Noroeste 30 Norte 0 -- -- 84
2019-07-21 21:00:00 22.3 16 Noroeste 26 Noroeste 0 -- -- 81
2019-07-21 20:00:00 23.3 12 Noroeste 33 Noroeste 0 -- -- 79
2019-07-21 19:00:00 24.8 11 Noroeste 30 Nordeste 0 -- -- 74
2019-07-21 18:00:00 26.8 14 Norte 29 Nordeste 0 -- -- 68
2019-07-21 17:00:00 27.6 13 Norte 28 Nordeste 0 -- -- 64
2019-07-21 16:00:00 27.5 13 Norte 27 Norte 0 -- -- 65
2019-07-21 15:00:00 28.1 13 Norte 22 Norte 0 -- -- 60
2019-07-21 14:00:00 29.7 7 Nordeste 15 Este 0 -- -- 48
2019-07-21 13:00:00 28.5 6 Nordeste 18 Este 0 -- -- 51
2019-07-21 12:00:00 26.7 6 Este 15 Sudeste 0 -- -- 57
2019-07-21 11:00:00 23.5 4 Norte 9 Norte 0 -- -- 71
2019-07-21 10:00:00 21.7 3 Norte 13 Norte 0 -- -- 76
2019-07-21 09:00:00 19.9 6 Norte 13 Norte 0 -- -- 81
2019-07-21 08:00:00 19.4 6 Norte 13 Noroeste 0 -- -- 83
2019-07-21 07:00:00 19.2 5 Noroeste 15 Noroeste 0 -- -- 84
2019-07-21 06:00:00 19.2 6 Oeste 14 Norte 0 -- -- 85
2019-07-21 05:00:00 19.4 4 Oeste 10 Noroeste 0 -- -- 84
2019-07-21 04:00:00 19.2 4 Oeste 12 Noroeste 0 -- -- 85
2019-07-21 03:00:00 19.3 4 Oeste 22 Noroeste 0 -- -- 84
2019-07-21 02:00:00 19.9 8 Noroeste 22 Norte 0 -- -- 81
2019-07-21 01:00:00 19.5 9 Oeste 25 Oeste 0 -- -- 83
2019-07-21 00:00:00 19.8 4 Noroeste 22 Noroeste 0 -- -- 82